sensor_id;sensor_type;location;lat;lon;timestamp;P1;durP1;ratioP1;P2;durP2;ratioP2
43700;SDS011;58809;47.984;7.964;2023-05-21T00:00:41;11.75;;;9.00;;
43700;SDS011;58809;47.984;7.964;2023-05-21T00:03:43;11.18;;;9.88;;
43700;SDS011;58809;47.984;7.964;2023-05-21T00:06:46;10.63;;;8.73;;
43700;SDS011;58809;47.984;7.964;2023-05-21T00:09:48;15.00;;;10.85;;
43700;SDS011;58809;47.984;7.964;2023-05-21T00:12:49;14.70;;;12.27;;
43700;SDS011;58809;47.984;7.964;2023-05-21T00:15:51;12.63;;;11.02;;
43700;SDS011;58809;47.984;7.964;2023-05-21T00:18:52;12.10;;;10.80;;
43700;SDS011;58809;47.984;7.964;2023-05-21T00:21:55;12.00;;;10.82;;
43700;SDS011;58809;47.984;7.964;2023-05-21T00:24:58;12.98;;;11.68;;
43700;SDS011;58809;47.984;7.964;2023-05-21T00:27:59;16.00;;;10.77;;
43700;SDS011;58809;47.984;7.964;2023-05-21T00:31:01;12.57;;;10.60;;
43700;SDS011;58809;47.984;7.964;2023-05-21T00:34:03;12.43;;;11.13;;
43700;SDS011;58809;47.984;7.964;2023-05-21T00:37:04;12.57;;;10.75;;
43700;SDS011;58809;47.984;7.964;2023-05-21T00:40:06;12.10;;;10.23;;
43700;SDS011;58809;47.984;7.964;2023-05-21T00:43:09;12.90;;;10.38;;
43700;SDS011;58809;47.984;7.964;2023-05-21T00:46:12;12.05;;;10.82;;
43700;SDS011;58809;47.984;7.964;2023-05-21T00:49:17;11.90;;;10.70;;
43700;SDS011;58809;47.984;7.964;2023-05-21T00:52:19;12.98;;;11.45;;
43700;SDS011;58809;47.984;7.964;2023-05-21T00:55:21;13.93;;;11.35;;
43700;SDS011;58809;47.984;7.964;2023-05-21T00:58:23;13.35;;;11.05;;
43700;SDS011;58809;47.984;7.964;2023-05-21T01:01:25;11.32;;;10.10;;
43700;SDS011;58809;47.984;7.964;2023-05-21T01:04:27;15.55;;;10.75;;
43700;SDS011;58809;47.984;7.964;2023-05-21T01:07:29;11.95;;;10.30;;
43700;SDS011;58809;47.984;7.964;2023-05-21T01:10:30;13.20;;;9.98;;
43700;SDS011;58809;47.984;7.964;2023-05-21T01:13:33;12.23;;;10.82;;
43700;SDS011;58809;47.984;7.964;2023-05-21T01:16:39;13.45;;;11.52;;
43700;SDS011;58809;47.984;7.964;2023-05-21T01:19:42;14.93;;;10.88;;
43700;SDS011;58809;47.984;7.964;2023-05-21T01:22:48;14.48;;;11.38;;
43700;SDS011;58809;47.984;7.964;2023-05-21T01:25:52;12.93;;;11.13;;
43700;SDS011;58809;47.984;7.964;2023-05-21T01:28:53;14.60;;;11.15;;
43700;SDS011;58809;47.984;7.964;2023-05-21T01:32:14;15.15;;;11.90;;
43700;SDS011;58809;47.984;7.964;2023-05-21T01:35:20;13.27;;;11.68;;
43700;SDS011;58809;47.984;7.964;2023-05-21T01:38:40;13.45;;;11.35;;
43700;SDS011;58809;47.984;7.964;2023-05-21T01:41:44;13.07;;;10.63;;
43700;SDS011;58809;47.984;7.964;2023-05-21T01:44:46;14.77;;;12.10;;
43700;SDS011;58809;47.984;7.964;2023-05-21T01:47:49;13.88;;;12.13;;
43700;SDS011;58809;47.984;7.964;2023-05-21T01:50:54;12.73;;;11.38;;
43700;SDS011;58809;47.984;7.964;2023-05-21T01:54:00;14.63;;;11.55;;
43700;SDS011;58809;47.984;7.964;2023-05-21T01:57:01;13.50;;;11.45;;
43700;SDS011;58809;47.984;7.964;2023-05-21T02:00:04;12.77;;;11.30;;
43700;SDS011;58809;47.984;7.964;2023-05-21T02:03:15;13.13;;;11.20;;
43700;SDS011;58809;47.984;7.964;2023-05-21T02:06:18;12.57;;;11.30;;
43700;SDS011;58809;47.984;7.964;2023-05-21T02:09:20;12.10;;;10.90;;
43700;SDS011;58809;47.984;7.964;2023-05-21T02:12:22;12.13;;;10.85;;
43700;SDS011;58809;47.984;7.964;2023-05-21T02:15:23;13.00;;;11.43;;
43700;SDS011;58809;47.984;7.964;2023-05-21T02:18:26;14.38;;;12.45;;
43700;SDS011;58809;47.984;7.964;2023-05-21T02:21:29;14.13;;;12.80;;
43700;SDS011;58809;47.984;7.964;2023-05-21T02:24:31;13.20;;;11.50;;
43700;SDS011;58809;47.984;7.964;2023-05-21T02:27:36;15.85;;;13.73;;
43700;SDS011;58809;47.984;7.964;2023-05-21T02:30:39;15.35;;;13.30;;
43700;SDS011;58809;47.984;7.964;2023-05-21T02:33:40;16.55;;;12.98;;
43700;SDS011;58809;47.984;7.964;2023-05-21T02:36:42;15.43;;;13.85;;
43700;SDS011;58809;47.984;7.964;2023-05-21T02:39:43;14.68;;;12.77;;
43700;SDS011;58809;47.984;7.964;2023-05-21T02:42:46;14.68;;;13.07;;
43700;SDS011;58809;47.984;7.964;2023-05-21T02:45:53;16.52;;;13.65;;
43700;SDS011;58809;47.984;7.964;2023-05-21T02:48:54;16.00;;;14.30;;
43700;SDS011;58809;47.984;7.964;2023-05-21T02:51:56;16.30;;;13.85;;
43700;SDS011;58809;47.984;7.964;2023-05-21T02:54:58;18.65;;;13.52;;
43700;SDS011;58809;47.984;7.964;2023-05-21T02:57:59;14.70;;;13.18;;
43700;SDS011;58809;47.984;7.964;2023-05-21T03:01:01;15.75;;;14.15;;
43700;SDS011;58809;47.984;7.964;2023-05-21T03:04:03;20.27;;;14.77;;
43700;SDS011;58809;47.984;7.964;2023-05-21T03:07:04;16.13;;;14.43;;
43700;SDS011;58809;47.984;7.964;2023-05-21T03:10:06;18.80;;;14.63;;
43700;SDS011;58809;47.984;7.964;2023-05-21T03:13:08;19.58;;;14.95;;
43700;SDS011;58809;47.984;7.964;2023-05-21T03:16:10;17.15;;;14.90;;
43700;SDS011;58809;47.984;7.964;2023-05-21T03:19:12;18.95;;;15.82;;
43700;SDS011;58809;47.984;7.964;2023-05-21T03:22:14;17.50;;;15.02;;
43700;SDS011;58809;47.984;7.964;2023-05-21T03:25:16;16.98;;;14.65;;
43700;SDS011;58809;47.984;7.964;2023-05-21T03:28:17;16.70;;;14.93;;
43700;SDS011;58809;47.984;7.964;2023-05-21T03:31:21;17.77;;;15.15;;
43700;SDS011;58809;47.984;7.964;2023-05-21T03:34:36;19.77;;;15.95;;
43700;SDS011;58809;47.984;7.964;2023-05-21T03:37:38;21.13;;;17.25;;
43700;SDS011;58809;47.984;7.964;2023-05-21T03:40:40;25.15;;;18.30;;
43700;SDS011;58809;47.984;7.964;2023-05-21T03:43:41;19.15;;;16.77;;
43700;SDS011;58809;47.984;7.964;2023-05-21T03:46:43;18.77;;;16.58;;
43700;SDS011;58809;47.984;7.964;2023-05-21T03:49:55;18.98;;;16.65;;
43700;SDS011;58809;47.984;7.964;2023-05-21T03:52:57;19.88;;;15.77;;
43700;SDS011;58809;47.984;7.964;2023-05-21T03:55:58;21.02;;;16.33;;
43700;SDS011;58809;47.984;7.964;2023-05-21T03:59:00;20.20;;;17.05;;
43700;SDS011;58809;47.984;7.964;2023-05-21T04:02:03;20.75;;;18.58;;
43700;SDS011;58809;47.984;7.964;2023-05-21T04:05:05;20.15;;;17.65;;
43700;SDS011;58809;47.984;7.964;2023-05-21T04:08:07;20.77;;;16.50;;
43700;SDS011;58809;47.984;7.964;2023-05-21T04:11:09;20.00;;;17.23;;
43700;SDS011;58809;47.984;7.964;2023-05-21T04:14:11;21.50;;;17.98;;
43700;SDS011;58809;47.984;7.964;2023-05-21T04:17:13;18.75;;;16.15;;
43700;SDS011;58809;47.984;7.964;2023-05-21T04:20:15;18.75;;;16.77;;
43700;SDS011;58809;47.984;7.964;2023-05-21T04:23:17;23.40;;;17.60;;
43700;SDS011;58809;47.984;7.964;2023-05-21T04:26:19;18.30;;;15.60;;
43700;SDS011;58809;47.984;7.964;2023-05-21T04:29:21;16.77;;;14.73;;
43700;SDS011;58809;47.984;7.964;2023-05-21T04:32:23;18.45;;;16.02;;
43700;SDS011;58809;47.984;7.964;2023-05-21T04:35:25;18.27;;;16.25;;
43700;SDS011;58809;47.984;7.964;2023-05-21T04:38:27;17.20;;;15.40;;
43700;SDS011;58809;47.984;7.964;2023-05-21T04:41:28;19.98;;;16.67;;
43700;SDS011;58809;47.984;7.964;2023-05-21T04:44:30;18.00;;;15.13;;
43700;SDS011;58809;47.984;7.964;2023-05-21T04:47:33;20.35;;;17.40;;
43700;SDS011;58809;47.984;7.964;2023-05-21T04:50:36;20.45;;;17.83;;
43700;SDS011;58809;47.984;7.964;2023-05-21T04:53:39;19.13;;;17.13;;
43700;SDS011;58809;47.984;7.964;2023-05-21T04:56:41;19.40;;;17.27;;
43700;SDS011;58809;47.984;7.964;2023-05-21T04:59:42;19.27;;;17.17;;
43700;SDS011;58809;47.984;7.964;2023-05-21T05:02:44;20.15;;;16.40;;
43700;SDS011;58809;47.984;7.964;2023-05-21T05:05:46;20.40;;;18.15;;
43700;SDS011;58809;47.984;7.964;2023-05-21T05:08:48;20.15;;;16.13;;
43700;SDS011;58809;47.984;7.964;2023-05-21T05:11:50;19.20;;;17.15;;
43700;SDS011;58809;47.984;7.964;2023-05-21T05:14:52;20.50;;;16.35;;
43700;SDS011;58809;47.984;7.964;2023-05-21T05:17:53;19.08;;;17.08;;
43700;SDS011;58809;47.984;7.964;2023-05-21T05:20:55;21.05;;;18.70;;
43700;SDS011;58809;47.984;7.964;2023-05-21T05:23:57;19.80;;;17.70;;
43700;SDS011;58809;47.984;7.964;2023-05-21T05:27:01;21.52;;;18.23;;
43700;SDS011;58809;47.984;7.964;2023-05-21T05:30:04;22.67;;;18.70;;
43700;SDS011;58809;47.984;7.964;2023-05-21T05:33:06;21.52;;;19.23;;
43700;SDS011;58809;47.984;7.964;2023-05-21T05:36:08;20.77;;;18.42;;
43700;SDS011;58809;47.984;7.964;2023-05-21T05:39:10;20.80;;;17.85;;
43700;SDS011;58809;47.984;7.964;2023-05-21T05:42:12;21.40;;;19.17;;
43700;SDS011;58809;47.984;7.964;2023-05-21T05:45:14;23.92;;;21.35;;
43700;SDS011;58809;47.984;7.964;2023-05-21T05:48:16;20.27;;;18.15;;
43700;SDS011;58809;47.984;7.964;2023-05-21T05:51:17;23.67;;;19.25;;
43700;SDS011;58809;47.984;7.964;2023-05-21T05:54:19;22.52;;;20.13;;
43700;SDS011;58809;47.984;7.964;2023-05-21T05:57:21;22.20;;;19.80;;
43700;SDS011;58809;47.984;7.964;2023-05-21T06:00:25;23.67;;;20.50;;
43700;SDS011;58809;47.984;7.964;2023-05-21T06:03:27;23.85;;;20.95;;
43700;SDS011;58809;47.984;7.964;2023-05-21T06:06:30;23.00;;;20.60;;
43700;SDS011;58809;47.984;7.964;2023-05-21T06:09:34;27.05;;;21.80;;
43700;SDS011;58809;47.984;7.964;2023-05-21T06:12:36;25.92;;;22.98;;
43700;SDS011;58809;47.984;7.964;2023-05-21T06:15:39;25.90;;;23.13;;
43700;SDS011;58809;47.984;7.964;2023-05-21T06:21:45;25.17;;;22.58;;
43700;SDS011;58809;47.984;7.964;2023-05-21T06:24:46;26.42;;;23.45;;
43700;SDS011;58809;47.984;7.964;2023-05-21T06:27:49;26.92;;;24.05;;
43700;SDS011;58809;47.984;7.964;2023-05-21T06:30:56;27.15;;;24.33;;
43700;SDS011;58809;47.984;7.964;2023-05-21T06:33:59;26.42;;;23.55;;
43700;SDS011;58809;47.984;7.964;2023-05-21T06:37:01;27.33;;;24.52;;
43700;SDS011;58809;47.984;7.964;2023-05-21T06:40:03;27.38;;;23.92;;
43700;SDS011;58809;47.984;7.964;2023-05-21T06:43:06;25.52;;;22.90;;
43700;SDS011;58809;47.984;7.964;2023-05-21T06:46:10;28.15;;;24.85;;
43700;SDS011;58809;47.984;7.964;2023-05-21T06:49:13;27.38;;;24.48;;
43700;SDS011;58809;47.984;7.964;2023-05-21T06:52:16;26.73;;;23.85;;
43700;SDS011;58809;47.984;7.964;2023-05-21T06:55:18;28.80;;;24.65;;
43700;SDS011;58809;47.984;7.964;2023-05-21T06:58:45;27.58;;;24.23;;
43700;SDS011;58809;47.984;7.964;2023-05-21T07:04:51;25.73;;;23.02;;
43700;SDS011;58809;47.984;7.964;2023-05-21T07:07:53;26.85;;;22.98;;
43700;SDS011;58809;47.984;7.964;2023-05-21T07:10:55;27.60;;;23.75;;
43700;SDS011;58809;47.984;7.964;2023-05-21T07:13:58;27.23;;;24.27;;
43700;SDS011;58809;47.984;7.964;2023-05-21T07:17:06;28.98;;;25.83;;
43700;SDS011;58809;47.984;7.964;2023-05-21T07:20:09;27.40;;;24.52;;
43700;SDS011;58809;47.984;7.964;2023-05-21T07:23:14;26.40;;;23.60;;
43700;SDS011;58809;47.984;7.964;2023-05-21T07:26:16;28.35;;;25.33;;
43700;SDS011;58809;47.984;7.964;2023-05-21T07:29:18;23.83;;;21.20;;
43700;SDS011;58809;47.984;7.964;2023-05-21T07:32:20;26.02;;;22.60;;
43700;SDS011;58809;47.984;7.964;2023-05-21T07:35:22;26.48;;;22.65;;
43700;SDS011;58809;47.984;7.964;2023-05-21T07:38:24;23.58;;;20.92;;
43700;SDS011;58809;47.984;7.964;2023-05-21T07:41:26;27.02;;;24.08;;
43700;SDS011;58809;47.984;7.964;2023-05-21T07:44:28;30.73;;;26.33;;
43700;SDS011;58809;47.984;7.964;2023-05-21T07:47:32;28.75;;;25.92;;
43700;SDS011;58809;47.984;7.964;2023-05-21T07:50:34;29.60;;;25.73;;
43700;SDS011;58809;47.984;7.964;2023-05-21T07:53:36;32.65;;;26.55;;
43700;SDS011;58809;47.984;7.964;2023-05-21T07:56:42;31.88;;;26.73;;
43700;SDS011;58809;47.984;7.964;2023-05-21T07:59:53;28.02;;;24.40;;
43700;SDS011;58809;47.984;7.964;2023-05-21T08:02:55;29.50;;;26.23;;
43700;SDS011;58809;47.984;7.964;2023-05-21T08:05:58;29.48;;;26.33;;
43700;SDS011;58809;47.984;7.964;2023-05-21T08:09:00;27.20;;;24.13;;
43700;SDS011;58809;47.984;7.964;2023-05-21T08:12:02;30.50;;;23.70;;
43700;SDS011;58809;47.984;7.964;2023-05-21T08:15:04;29.23;;;26.10;;
43700;SDS011;58809;47.984;7.964;2023-05-21T08:18:11;28.40;;;25.40;;
43700;SDS011;58809;47.984;7.964;2023-05-21T08:21:15;29.63;;;24.60;;
43700;SDS011;58809;47.984;7.964;2023-05-21T08:24:17;27.83;;;24.83;;
43700;SDS011;58809;47.984;7.964;2023-05-21T08:27:19;28.45;;;23.75;;
43700;SDS011;58809;47.984;7.964;2023-05-21T08:30:21;28.05;;;24.98;;
43700;SDS011;58809;47.984;7.964;2023-05-21T08:33:24;26.88;;;23.85;;
43700;SDS011;58809;47.984;7.964;2023-05-21T08:36:26;30.42;;;27.08;;
43700;SDS011;58809;47.984;7.964;2023-05-21T08:39:32;25.63;;;22.98;;
43700;SDS011;58809;47.984;7.964;2023-05-21T08:42:45;26.38;;;23.20;;
43700;SDS011;58809;47.984;7.964;2023-05-21T08:46:13;25.55;;;22.85;;
43700;SDS011;58809;47.984;7.964;2023-05-21T08:49:17;26.67;;;22.98;;
43700;SDS011;58809;47.984;7.964;2023-05-21T08:52:29;27.27;;;24.38;;
43700;SDS011;58809;47.984;7.964;2023-05-21T08:55:31;27.10;;;23.15;;
43700;SDS011;58809;47.984;7.964;2023-05-21T08:58:33;26.15;;;23.40;;
43700;SDS011;58809;47.984;7.964;2023-05-21T09:01:38;28.70;;;23.30;;
43700;SDS011;58809;47.984;7.964;2023-05-21T09:04:52;25.55;;;22.83;;
43700;SDS011;58809;47.984;7.964;2023-05-21T09:11:55;26.38;;;23.40;;
43700;SDS011;58809;47.984;7.964;2023-05-21T09:14:56;26.42;;;21.63;;
43700;SDS011;58809;47.984;7.964;2023-05-21T09:18:05;25.83;;;22.67;;
43700;SDS011;58809;47.984;7.964;2023-05-21T09:21:29;24.60;;;22.05;;
43700;SDS011;58809;47.984;7.964;2023-05-21T09:24:36;24.08;;;21.67;;
43700;SDS011;58809;47.984;7.964;2023-05-21T09:27:39;24.88;;;22.40;;
43700;SDS011;58809;47.984;7.964;2023-05-21T09:30:47;24.00;;;21.45;;
43700;SDS011;58809;47.984;7.964;2023-05-21T09:33:49;23.33;;;20.52;;
43700;SDS011;58809;47.984;7.964;2023-05-21T09:36:55;26.13;;;23.38;;
43700;SDS011;58809;47.984;7.964;2023-05-21T09:39:58;25.25;;;22.67;;
43700;SDS011;58809;47.984;7.964;2023-05-21T09:43:00;26.58;;;22.38;;
43700;SDS011;58809;47.984;7.964;2023-05-21T09:46:02;26.90;;;23.70;;
43700;SDS011;58809;47.984;7.964;2023-05-21T09:49:06;26.00;;;23.30;;
43700;SDS011;58809;47.984;7.964;2023-05-21T09:52:22;26.50;;;23.23;;
43700;SDS011;58809;47.984;7.964;2023-05-21T09:55:25;24.63;;;22.13;;
43700;SDS011;58809;47.984;7.964;2023-05-21T09:58:28;24.63;;;22.13;;
43700;SDS011;58809;47.984;7.964;2023-05-21T10:01:30;27.33;;;24.48;;
43700;SDS011;58809;47.984;7.964;2023-05-21T10:04:34;25.67;;;23.17;;
43700;SDS011;58809;47.984;7.964;2023-05-21T10:07:36;26.00;;;23.25;;
43700;SDS011;58809;47.984;7.964;2023-05-21T10:10:39;26.98;;;23.90;;
43700;SDS011;58809;47.984;7.964;2023-05-21T10:13:44;24.90;;;22.33;;
43700;SDS011;58809;47.984;7.964;2023-05-21T10:16:51;24.92;;;22.35;;
43700;SDS011;58809;47.984;7.964;2023-05-21T10:19:54;24.87;;;22.27;;
43700;SDS011;58809;47.984;7.964;2023-05-21T10:22:57;26.25;;;22.92;;
43700;SDS011;58809;47.984;7.964;2023-05-21T10:25:59;24.58;;;21.73;;
43700;SDS011;58809;47.984;7.964;2023-05-21T10:29:01;29.13;;;23.55;;
43700;SDS011;58809;47.984;7.964;2023-05-21T10:32:03;25.25;;;22.52;;
43700;SDS011;58809;47.984;7.964;2023-05-21T10:35:06;23.70;;;21.17;;
43700;SDS011;58809;47.984;7.964;2023-05-21T10:38:09;25.67;;;23.00;;
43700;SDS011;58809;47.984;7.964;2023-05-21T10:41:16;25.23;;;22.63;;
43700;SDS011;58809;47.984;7.964;2023-05-21T10:48:20;26.15;;;21.98;;
43700;SDS011;58809;47.984;7.964;2023-05-21T10:52:29;27.20;;;22.58;;
43700;SDS011;58809;47.984;7.964;2023-05-21T10:55:35;25.73;;;21.77;;
43700;SDS011;58809;47.984;7.964;2023-05-21T11:02:18;26.73;;;23.95;;
43700;SDS011;58809;47.984;7.964;2023-05-21T11:05:39;23.20;;;20.85;;
43700;SDS011;58809;47.984;7.964;2023-05-21T11:08:51;25.67;;;23.08;;
43700;SDS011;58809;47.984;7.964;2023-05-21T11:11:56;23.58;;;21.02;;
43700;SDS011;58809;47.984;7.964;2023-05-21T11:14:59;24.25;;;21.65;;
43700;SDS011;58809;47.984;7.964;2023-05-21T11:18:00;24.55;;;22.08;;
43700;SDS011;58809;47.984;7.964;2023-05-21T11:21:06;24.92;;;22.42;;
43700;SDS011;58809;47.984;7.964;2023-05-21T11:24:10;25.35;;;22.23;;
43700;SDS011;58809;47.984;7.964;2023-05-21T11:27:40;24.48;;;21.98;;
43700;SDS011;58809;47.984;7.964;2023-05-21T11:30:41;24.73;;;22.33;;
43700;SDS011;58809;47.984;7.964;2023-05-21T11:33:46;23.35;;;21.00;;
43700;SDS011;58809;47.984;7.964;2023-05-21T11:36:48;24.02;;;21.58;;
43700;SDS011;58809;47.984;7.964;2023-05-21T11:39:50;23.40;;;20.95;;
43700;SDS011;58809;47.984;7.964;2023-05-21T11:42:52;23.63;;;21.20;;
43700;SDS011;58809;47.984;7.964;2023-05-21T11:45:55;24.35;;;21.75;;
43700;SDS011;58809;47.984;7.964;2023-05-21T11:48:57;23.27;;;20.95;;
43700;SDS011;58809;47.984;7.964;2023-05-21T11:51:59;22.75;;;20.63;;
43700;SDS011;58809;47.984;7.964;2023-05-21T11:55:01;24.02;;;21.60;;
43700;SDS011;58809;47.984;7.964;2023-05-21T11:58:04;22.75;;;20.55;;
43700;SDS011;58809;47.984;7.964;2023-05-21T12:01:12;23.70;;;21.48;;
43700;SDS011;58809;47.984;7.964;2023-05-21T12:04:28;26.10;;;22.60;;
43700;SDS011;58809;47.984;7.964;2023-05-21T12:07:30;22.60;;;20.15;;
43700;SDS011;58809;47.984;7.964;2023-05-21T12:10:32;24.08;;;21.65;;
43700;SDS011;58809;47.984;7.964;2023-05-21T12:13:33;25.00;;;22.40;;
43700;SDS011;58809;47.984;7.964;2023-05-21T12:16:35;25.33;;;22.55;;
43700;SDS011;58809;47.984;7.964;2023-05-21T12:19:37;22.92;;;20.60;;
43700;SDS011;58809;47.984;7.964;2023-05-21T12:22:39;24.40;;;21.83;;
43700;SDS011;58809;47.984;7.964;2023-05-21T12:25:42;23.70;;;21.13;;
43700;SDS011;58809;47.984;7.964;2023-05-21T12:28:44;24.25;;;21.80;;
43700;SDS011;58809;47.984;7.964;2023-05-21T12:31:49;24.17;;;21.67;;
43700;SDS011;58809;47.984;7.964;2023-05-21T12:34:51;25.48;;;22.98;;
43700;SDS011;58809;47.984;7.964;2023-05-21T12:37:54;26.58;;;23.80;;
43700;SDS011;58809;47.984;7.964;2023-05-21T12:41:06;24.10;;;21.70;;
43700;SDS011;58809;47.984;7.964;2023-05-21T12:44:07;26.35;;;21.80;;
43700;SDS011;58809;47.984;7.964;2023-05-21T12:47:09;24.58;;;22.00;;
43700;SDS011;58809;47.984;7.964;2023-05-21T12:50:11;24.83;;;22.33;;
43700;SDS011;58809;47.984;7.964;2023-05-21T12:53:14;23.85;;;21.35;;
43700;SDS011;58809;47.984;7.964;2023-05-21T12:56:15;23.83;;;21.40;;
43700;SDS011;58809;47.984;7.964;2023-05-21T12:59:17;24.58;;;21.98;;
43700;SDS011;58809;47.984;7.964;2023-05-21T13:02:23;24.50;;;21.85;;
43700;SDS011;58809;47.984;7.964;2023-05-21T13:05:45;23.30;;;20.88;;
43700;SDS011;58809;47.984;7.964;2023-05-21T13:08:46;24.88;;;22.48;;
43700;SDS011;58809;47.984;7.964;2023-05-21T13:11:48;24.65;;;21.88;;
43700;SDS011;58809;47.984;7.964;2023-05-21T13:14:50;22.30;;;20.15;;
43700;SDS011;58809;47.984;7.964;2023-05-21T13:17:53;23.88;;;21.30;;
43700;SDS011;58809;47.984;7.964;2023-05-21T13:20:57;23.90;;;21.20;;
43700;SDS011;58809;47.984;7.964;2023-05-21T13:23:58;23.92;;;20.88;;
43700;SDS011;58809;47.984;7.964;2023-05-21T13:27:00;25.83;;;20.95;;
43700;SDS011;58809;47.984;7.964;2023-05-21T13:30:02;23.13;;;20.70;;
43700;SDS011;58809;47.984;7.964;2023-05-21T13:33:04;23.17;;;20.75;;
43700;SDS011;58809;47.984;7.964;2023-05-21T13:36:06;23.05;;;20.63;;
43700;SDS011;58809;47.984;7.964;2023-05-21T13:39:08;22.55;;;20.25;;
43700;SDS011;58809;47.984;7.964;2023-05-21T13:42:10;22.63;;;20.25;;
43700;SDS011;58809;47.984;7.964;2023-05-21T13:45:12;22.30;;;20.00;;
43700;SDS011;58809;47.984;7.964;2023-05-21T13:48:15;22.50;;;20.30;;
43700;SDS011;58809;47.984;7.964;2023-05-21T13:51:17;22.55;;;20.20;;
43700;SDS011;58809;47.984;7.964;2023-05-21T13:54:38;21.33;;;19.25;;
43700;SDS011;58809;47.984;7.964;2023-05-21T13:57:40;22.02;;;19.73;;
43700;SDS011;58809;47.984;7.964;2023-05-21T14:00:42;20.70;;;18.73;;
43700;SDS011;58809;47.984;7.964;2023-05-21T14:03:44;22.30;;;20.17;;
43700;SDS011;58809;47.984;7.964;2023-05-21T14:06:45;20.52;;;18.33;;
43700;SDS011;58809;47.984;7.964;2023-05-21T14:09:47;21.73;;;19.50;;
43700;SDS011;58809;47.984;7.964;2023-05-21T14:12:49;20.77;;;18.83;;
43700;SDS011;58809;47.984;7.964;2023-05-21T14:15:51;20.52;;;18.48;;
43700;SDS011;58809;47.984;7.964;2023-05-21T14:18:53;22.15;;;19.35;;
43700;SDS011;58809;47.984;7.964;2023-05-21T14:21:55;21.00;;;18.85;;
43700;SDS011;58809;47.984;7.964;2023-05-21T14:24:57;20.55;;;18.50;;
43700;SDS011;58809;47.984;7.964;2023-05-21T14:27:58;21.55;;;19.45;;
43700;SDS011;58809;47.984;7.964;2023-05-21T14:31:00;20.67;;;18.65;;
43700;SDS011;58809;47.984;7.964;2023-05-21T14:34:01;20.52;;;18.60;;
43700;SDS011;58809;47.984;7.964;2023-05-21T14:37:03;19.98;;;17.98;;
43700;SDS011;58809;47.984;7.964;2023-05-21T14:40:05;20.98;;;18.83;;
43700;SDS011;58809;47.984;7.964;2023-05-21T14:43:08;19.27;;;17.38;;
43700;SDS011;58809;47.984;7.964;2023-05-21T14:46:09;20.13;;;18.25;;
43700;SDS011;58809;47.984;7.964;2023-05-21T14:49:11;20.08;;;18.27;;
43700;SDS011;58809;47.984;7.964;2023-05-21T14:52:13;21.13;;;19.00;;
43700;SDS011;58809;47.984;7.964;2023-05-21T14:55:14;19.15;;;17.25;;
43700;SDS011;58809;47.984;7.964;2023-05-21T14:58:18;19.85;;;17.73;;
43700;SDS011;58809;47.984;7.964;2023-05-21T15:01:20;21.35;;;18.40;;
43700;SDS011;58809;47.984;7.964;2023-05-21T15:04:21;19.75;;;17.83;;
43700;SDS011;58809;47.984;7.964;2023-05-21T15:07:23;19.00;;;17.30;;
43700;SDS011;58809;47.984;7.964;2023-05-21T15:10:25;18.52;;;16.83;;
43700;SDS011;58809;47.984;7.964;2023-05-21T15:13:27;18.52;;;16.75;;
43700;SDS011;58809;47.984;7.964;2023-05-21T15:16:29;19.25;;;17.45;;
43700;SDS011;58809;47.984;7.964;2023-05-21T15:19:31;20.83;;;18.80;;
43700;SDS011;58809;47.984;7.964;2023-05-21T15:22:33;22.95;;;20.05;;
43700;SDS011;58809;47.984;7.964;2023-05-21T15:25:35;21.67;;;19.48;;
43700;SDS011;58809;47.984;7.964;2023-05-21T15:28:37;13.82;;;11.73;;
43700;SDS011;58809;47.984;7.964;2023-05-21T15:31:38;10.85;;;9.75;;
43700;SDS011;58809;47.984;7.964;2023-05-21T15:34:40;8.07;;;7.28;;
43700;SDS011;58809;47.984;7.964;2023-05-21T15:37:42;8.15;;;7.15;;
43700;SDS011;58809;47.984;7.964;2023-05-21T15:40:45;10.52;;;9.00;;
43700;SDS011;58809;47.984;7.964;2023-05-21T15:43:47;7.28;;;6.47;;
43700;SDS011;58809;47.984;7.964;2023-05-21T15:46:49;9.68;;;6.47;;
43700;SDS011;58809;47.984;7.964;2023-05-21T15:49:51;8.65;;;6.15;;
43700;SDS011;58809;47.984;7.964;2023-05-21T15:52:53;6.85;;;5.70;;
43700;SDS011;58809;47.984;7.964;2023-05-21T15:55:54;8.98;;;6.85;;
43700;SDS011;58809;47.984;7.964;2023-05-21T15:58:56;9.52;;;6.75;;
43700;SDS011;58809;47.984;7.964;2023-05-21T16:02:01;8.27;;;6.35;;
43700;SDS011;58809;47.984;7.964;2023-05-21T16:05:02;11.20;;;7.57;;
43700;SDS011;58809;47.984;7.964;2023-05-21T16:08:04;9.45;;;7.82;;
43700;SDS011;58809;47.984;7.964;2023-05-21T16:11:07;10.15;;;8.55;;
43700;SDS011;58809;47.984;7.964;2023-05-21T16:14:09;9.80;;;8.07;;
43700;SDS011;58809;47.984;7.964;2023-05-21T16:17:11;8.80;;;7.90;;
43700;SDS011;58809;47.984;7.964;2023-05-21T16:20:13;11.55;;;8.80;;
43700;SDS011;58809;47.984;7.964;2023-05-21T16:23:14;13.13;;;9.23;;
43700;SDS011;58809;47.984;7.964;2023-05-21T16:26:16;12.20;;;9.00;;
43700;SDS011;58809;47.984;7.964;2023-05-21T16:29:18;12.70;;;10.60;;
43700;SDS011;58809;47.984;7.964;2023-05-21T16:32:19;15.27;;;10.55;;
43700;SDS011;58809;47.984;7.964;2023-05-21T16:35:21;14.57;;;9.63;;
43700;SDS011;58809;47.984;7.964;2023-05-21T16:38:23;10.65;;;9.52;;
43700;SDS011;58809;47.984;7.964;2023-05-21T16:41:24;10.20;;;8.15;;
43700;SDS011;58809;47.984;7.964;2023-05-21T16:44:26;10.32;;;9.05;;
43700;SDS011;58809;47.984;7.964;2023-05-21T16:47:27;11.77;;;9.25;;
43700;SDS011;58809;47.984;7.964;2023-05-21T16:50:29;12.32;;;9.02;;
43700;SDS011;58809;47.984;7.964;2023-05-21T16:53:31;12.63;;;9.02;;
43700;SDS011;58809;47.984;7.964;2023-05-21T16:56:32;9.60;;;7.70;;
43700;SDS011;58809;47.984;7.964;2023-05-21T16:59:34;11.82;;;8.43;;
43700;SDS011;58809;47.984;7.964;2023-05-21T17:02:36;11.90;;;7.68;;
43700;SDS011;58809;47.984;7.964;2023-05-21T17:05:38;10.43;;;8.20;;
43700;SDS011;58809;47.984;7.964;2023-05-21T17:08:40;12.43;;;7.43;;
43700;SDS011;58809;47.984;7.964;2023-05-21T17:11:42;10.75;;;8.00;;
43700;SDS011;58809;47.984;7.964;2023-05-21T17:14:44;11.07;;;7.88;;
43700;SDS011;58809;47.984;7.964;2023-05-21T17:17:45;10.68;;;7.63;;
43700;SDS011;58809;47.984;7.964;2023-05-21T17:20:47;10.70;;;7.75;;
43700;SDS011;58809;47.984;7.964;2023-05-21T17:23:49;8.60;;;7.53;;
43700;SDS011;58809;47.984;7.964;2023-05-21T17:26:51;12.45;;;9.32;;
43700;SDS011;58809;47.984;7.964;2023-05-21T17:29:53;13.07;;;9.38;;
43700;SDS011;58809;47.984;7.964;2023-05-21T17:32:55;11.68;;;8.88;;
43700;SDS011;58809;47.984;7.964;2023-05-21T17:35:58;13.23;;;8.75;;
43700;SDS011;58809;47.984;7.964;2023-05-21T17:39:01;11.05;;;8.75;;
43700;SDS011;58809;47.984;7.964;2023-05-21T17:42:03;10.65;;;9.45;;
43700;SDS011;58809;47.984;7.964;2023-05-21T17:45:05;11.55;;;8.80;;
43700;SDS011;58809;47.984;7.964;2023-05-21T17:48:07;10.05;;;9.02;;
43700;SDS011;58809;47.984;7.964;2023-05-21T17:51:08;11.32;;;9.88;;
43700;SDS011;58809;47.984;7.964;2023-05-21T17:54:11;15.07;;;9.52;;
43700;SDS011;58809;47.984;7.964;2023-05-21T17:57:12;11.45;;;9.13;;
43700;SDS011;58809;47.984;7.964;2023-05-21T18:00:16;14.10;;;9.73;;
43700;SDS011;58809;47.984;7.964;2023-05-21T18:03:18;10.93;;;9.27;;
43700;SDS011;58809;47.984;7.964;2023-05-21T18:06:19;10.35;;;8.07;;
43700;SDS011;58809;47.984;7.964;2023-05-21T18:09:21;10.13;;;7.85;;
43700;SDS011;58809;47.984;7.964;2023-05-21T18:12:22;9.85;;;8.27;;